createdAt,value
2022-11-16T00:01:33.741Z,77.89
2022-11-16T00:04:04.918Z,77.83
2022-11-16T00:06:31.819Z,77.79
2022-11-16T00:09:19.802Z,78.00
2022-11-16T00:11:48.831Z,78.02
2022-11-16T00:14:15.600Z,78.02
2022-11-16T00:16:42.407Z,77.74
2022-11-16T00:19:11.235Z,77.75
2022-11-16T00:21:38.116Z,77.76
2022-11-16T00:24:05.842Z,77.90
2022-11-16T00:26:32.590Z,77.87
2022-11-16T00:28:59.425Z,78.13
2022-11-16T00:31:26.031Z,78.00
2022-11-16T00:33:53.413Z,77.65
2022-11-16T00:36:20.422Z,78.10
2022-11-16T00:38:47.847Z,78.03
2022-11-16T00:41:14.650Z,78.01
2022-11-16T00:43:41.293Z,77.94
2022-11-16T00:46:09.106Z,77.98
2022-11-16T00:48:36.229Z,77.86
2022-11-16T00:51:03.041Z,77.85
2022-11-16T00:53:29.866Z,77.48
2022-11-16T00:55:56.556Z,77.84
2022-11-16T00:58:23.693Z,77.86
2022-11-16T01:00:50.793Z,77.77
2022-11-16T01:03:17.646Z,77.49
2022-11-16T01:05:44.302Z,77.73
2022-11-16T01:08:10.910Z,77.67
2022-11-16T01:10:40.657Z,77.71
2022-11-16T01:13:07.961Z,77.63
2022-11-16T01:15:35.072Z,77.72
2022-11-16T01:18:01.729Z,77.52
2022-11-16T01:20:29.383Z,77.77
2022-11-16T01:22:56.044Z,77.91
2022-11-16T01:25:22.691Z,77.69
2022-11-16T01:27:49.335Z,77.57
2022-11-16T01:30:16.744Z,77.80
2022-11-16T01:32:43.785Z,77.76
2022-11-16T01:35:14.541Z,77.83
2022-11-16T01:37:41.412Z,77.64
2022-11-16T01:40:08.648Z,77.70
2022-11-16T01:42:35.283Z,77.70
2022-11-16T01:45:15.390Z,77.57
2022-11-16T01:47:42.288Z,77.63
2022-11-16T01:50:16.811Z,77.78
2022-11-16T01:52:57.053Z,77.38
2022-11-16T01:55:24.925Z,77.63
2022-11-16T01:57:51.688Z,77.84
2022-11-16T02:00:19.043Z,77.59
2022-11-16T02:02:45.791Z,77.81
2022-11-16T02:05:20.081Z,77.55
2022-11-16T02:08:23.645Z,77.82
2022-11-16T02:11:22.443Z,77.53
2022-11-16T02:14:14.084Z,77.68
2022-11-16T02:17:03.345Z,77.43
2022-11-16T02:20:27.288Z,77.48
2022-11-16T02:23:07.771Z,77.61
2022-11-16T02:25:40.209Z,77.50
2022-11-16T02:28:31.523Z,77.57
2022-11-16T02:31:03.087Z,77.29
2022-11-16T02:33:38.919Z,77.45
2022-11-16T02:36:10.313Z,77.52
2022-11-16T02:38:40.528Z,77.39
2022-11-16T02:41:12.738Z,77.67
2022-11-16T02:43:43.610Z,77.55
2022-11-16T02:46:18.740Z,77.56
2022-11-16T02:48:50.409Z,77.17
2022-11-16T02:51:18.773Z,77.08
2022-11-16T02:54:14.966Z,77.30
2022-11-16T02:57:03.073Z,77.58
2022-11-16T02:59:44.541Z,77.32
2022-11-16T03:02:24.997Z,77.50
2022-11-16T03:05:21.615Z,77.36
2022-11-16T03:07:55.281Z,77.31
2022-11-16T03:10:41.560Z,77.11
2022-11-16T03:13:11.801Z,77.26
2022-11-16T03:15:41.741Z,77.06
2022-11-16T03:18:09.081Z,77.30
2022-11-16T03:20:39.099Z,77.36
2022-11-16T03:23:10.383Z,77.20
2022-11-16T03:25:44.178Z,77.39
2022-11-16T03:28:15.852Z,77.46
2022-11-16T03:31:06.042Z,77.36
2022-11-16T03:33:37.183Z,77.74
2022-11-16T03:36:15.566Z,77.76
2022-11-16T03:38:44.460Z,77.90
2022-11-16T03:41:12.644Z,77.81
2022-11-16T03:43:42.748Z,77.77
2022-11-16T03:46:09.969Z,77.63
2022-11-16T03:48:39.914Z,77.57
2022-11-16T03:51:09.147Z,77.89
2022-11-16T03:53:35.874Z,77.97
2022-11-16T03:56:02.909Z,77.97
2022-11-16T03:58:29.828Z,77.69
2022-11-16T04:00:56.946Z,77.71
2022-11-16T04:03:23.649Z,77.85
2022-11-16T04:06:09.813Z,77.94
2022-11-16T04:08:55.107Z,77.91
2022-11-16T04:11:41.323Z,77.86
2022-11-16T04:14:32.726Z,78.28
2022-11-16T04:17:18.021Z,78.12
2022-11-16T04:20:03.476Z,78.00
2022-11-16T04:22:53.018Z,78.07
2022-11-16T04:25:25.459Z,77.93
2022-11-16T04:28:13.394Z,78.02
2022-11-16T04:31:00.524Z,78.31
2022-11-16T04:33:46.412Z,78.05
2022-11-16T04:36:31.719Z,78.05
2022-11-16T04:38:58.452Z,78.64
2022-11-16T04:41:43.728Z,78.54
2022-11-16T04:44:10.619Z,78.38
2022-11-16T04:46:55.783Z,78.50
2022-11-16T04:49:22.507Z,78.46
2022-11-16T04:51:49.378Z,78.43
2022-11-16T04:54:16.117Z,78.67
2022-11-16T04:56:42.815Z,78.63
2022-11-16T04:59:09.683Z,78.64
2022-11-16T05:01:55.287Z,78.52
2022-11-16T05:04:22.047Z,78.76
2022-11-16T05:06:48.652Z,78.60
2022-11-16T05:09:15.842Z,78.58
2022-11-16T05:11:42.694Z,78.59
2022-11-16T05:14:10.284Z,78.72
2022-11-16T05:16:37.231Z,78.77
2022-11-16T05:19:23.120Z,78.52
2022-11-16T05:21:49.825Z,78.79
2022-11-16T05:24:35.012Z,78.59
2022-11-16T05:27:15.047Z,78.83
2022-11-16T05:29:42.073Z,78.76
2022-11-16T05:32:10.868Z,78.75
2022-11-16T05:34:37.892Z,78.42
2022-11-16T05:37:04.695Z,78.27
2022-11-16T05:39:31.331Z,78.58
2022-11-16T05:41:58.135Z,78.80
2022-11-16T05:44:25.274Z,78.59
2022-11-16T05:46:52.551Z,78.45
2022-11-16T05:49:19.922Z,78.79
2022-11-16T05:51:47.657Z,78.52
2022-11-16T05:54:17.584Z,78.81
2022-11-16T05:56:45.058Z,78.84
2022-11-16T05:59:16.835Z,78.80
2022-11-16T06:01:43.722Z,78.67
2022-11-16T06:04:10.834Z,78.65
2022-11-16T06:06:38.169Z,78.77
2022-11-16T06:09:05.750Z,78.45
2022-11-16T06:11:35.997Z,78.92
2022-11-16T06:14:03.555Z,79.07
2022-11-16T06:16:30.392Z,79.17
2022-11-16T06:18:57.544Z,79.01
2022-11-16T06:21:24.130Z,78.77
2022-11-16T06:23:50.796Z,79.12
2022-11-16T06:26:17.623Z,78.80
2022-11-16T06:28:44.834Z,78.96
2022-11-16T06:31:11.461Z,78.82
2022-11-16T06:33:38.287Z,78.93
2022-11-16T06:36:05.410Z,78.88
2022-11-16T06:38:32.395Z,79.22
2022-11-16T06:40:59.911Z,79.05
2022-11-16T06:43:27.049Z,78.77
2022-11-16T06:46:00.836Z,79.12
2022-11-16T06:48:27.830Z,79.04
2022-11-16T06:50:54.588Z,79.33
2022-11-16T06:53:28.712Z,79.07
2022-11-16T06:56:00.265Z,79.47
2022-11-16T06:58:30.724Z,79.36
2022-11-16T07:00:58.281Z,79.64
2022-11-16T07:03:24.903Z,79.67
2022-11-16T07:05:51.699Z,79.45
2022-11-16T07:08:18.488Z,79.23
2022-11-16T07:10:45.221Z,79.49
2022-11-16T07:13:11.957Z,79.83
2022-11-16T07:15:41.565Z,79.69
2022-11-16T07:18:08.507Z,79.85
2022-11-16T07:20:37.382Z,79.85
2022-11-16T07:23:04.673Z,79.75
2022-11-16T07:25:33.334Z,79.72
2022-11-16T07:28:00.444Z,79.77
2022-11-16T07:30:27.237Z,79.59
2022-11-16T07:32:58.964Z,79.95
2022-11-16T07:35:26.082Z,79.84
2022-11-16T07:37:52.911Z,79.81
2022-11-16T07:40:20.247Z,79.71
2022-11-16T07:42:47.164Z,79.97
2022-11-16T07:45:13.939Z,80.09
2022-11-16T07:47:40.685Z,80.23
2022-11-16T07:50:07.755Z,80.18
2022-11-16T07:52:34.581Z,80.01
2022-11-16T07:55:01.851Z,80.31
2022-11-16T07:57:29.104Z,80.52
2022-11-16T07:59:55.961Z,80.36
2022-11-16T08:02:22.830Z,80.39
2022-11-16T08:04:50.879Z,80.54
2022-11-16T08:07:17.727Z,80.56
2022-11-16T08:09:44.993Z,80.45
2022-11-16T08:12:12.118Z,80.52
2022-11-16T08:14:38.998Z,80.36
2022-11-16T08:17:05.827Z,80.47
2022-11-16T08:19:32.633Z,80.57
2022-11-16T08:21:59.273Z,80.39
2022-11-16T08:24:25.958Z,80.45
2022-11-16T08:26:54.260Z,80.38
2022-11-16T08:29:21.102Z,80.27
2022-11-16T08:31:47.768Z,80.28
2022-11-16T08:34:14.631Z,80.36
2022-11-16T08:36:41.450Z,80.25
2022-11-16T08:39:08.149Z,80.10
2022-11-16T08:41:38.041Z,80.22
2022-11-16T08:44:05.217Z,80.11
2022-11-16T08:46:31.808Z,80.22
2022-11-16T08:48:59.269Z,80.09
2022-11-16T08:51:26.687Z,80.11
2022-11-16T08:53:58.179Z,80.12
2022-11-16T08:56:27.566Z,80.18
2022-11-16T08:58:58.637Z,80.14
2022-11-16T09:01:27.920Z,80.13
2022-11-16T09:03:54.823Z,80.10
2022-11-16T09:06:22.912Z,80.31
2022-11-16T09:08:50.197Z,80.25
2022-11-16T09:11:20.258Z,80.35
2022-11-16T09:13:48.507Z,80.34
2022-11-16T09:16:16.921Z,80.33
2022-11-16T09:18:45.803Z,80.42
2022-11-16T09:21:12.499Z,80.09
2022-11-16T09:23:39.138Z,80.10
2022-11-16T09:26:06.496Z,80.18
2022-11-16T09:28:33.557Z,80.09
2022-11-16T09:31:02.775Z,79.92
2022-11-16T09:33:31.437Z,80.08
2022-11-16T09:36:09.551Z,79.97
2022-11-16T09:39:13.987Z,79.99
2022-11-16T09:41:43.771Z,79.78
2022-11-16T09:44:52.433Z,79.71
2022-11-16T09:47:22.383Z,79.39
2022-11-16T09:49:58.218Z,79.66
2022-11-16T09:52:48.557Z,79.72
2022-11-16T09:55:29.236Z,79.71
2022-11-16T09:58:00.045Z,79.61
2022-11-16T10:00:29.207Z,79.38
2022-11-16T10:03:23.566Z,79.46
2022-11-16T10:06:00.661Z,79.38
2022-11-16T10:08:42.387Z,79.25
2022-11-16T10:11:35.386Z,79.20
2022-11-16T10:14:20.439Z,79.23
2022-11-16T10:17:02.025Z,79.08
2022-11-16T10:19:47.594Z,79.21
2022-11-16T10:22:40.551Z,79.11
2022-11-16T10:25:16.921Z,78.95
2022-11-16T10:27:55.974Z,78.87
2022-11-16T10:30:23.411Z,78.81
2022-11-16T10:33:02.834Z,78.77
2022-11-16T10:35:39.759Z,78.76
2022-11-16T10:38:21.920Z,78.83
2022-11-16T10:41:17.464Z,78.53
2022-11-16T10:43:45.687Z,78.44
2022-11-16T10:46:17.554Z,78.55
2022-11-16T10:48:56.249Z,78.83
2022-11-16T10:51:23.369Z,78.44
2022-11-16T10:53:50.088Z,78.41
2022-11-16T10:56:22.530Z,78.46
2022-11-16T10:58:53.001Z,78.52
2022-11-16T11:01:36.663Z,78.19
2022-11-16T11:04:24.417Z,78.09
2022-11-16T11:06:56.759Z,77.96
2022-11-16T11:09:31.470Z,77.83
2022-11-16T11:12:36.213Z,77.74
2022-11-16T11:15:24.289Z,77.63
2022-11-16T11:18:15.668Z,77.51
2022-11-16T11:20:45.395Z,77.43
2022-11-16T11:23:24.086Z,77.22
2022-11-16T11:25:50.841Z,77.07
2022-11-16T11:28:29.216Z,77.14
2022-11-16T11:31:22.682Z,77.08
2022-11-16T11:34:00.840Z,77.01
2022-11-16T11:36:38.614Z,76.81
2022-11-16T11:39:11.883Z,76.73
2022-11-16T11:41:39.164Z,76.59
2022-11-16T11:44:15.878Z,76.54
2022-11-16T11:47:42.412Z,76.63
2022-11-16T11:49:43.070Z,76.61
2022-11-16T11:52:19.280Z,76.62
2022-11-16T11:54:47.819Z,76.76
2022-11-16T11:57:22.552Z,76.58
2022-11-16T11:59:53.137Z,76.62
2022-11-16T12:02:42.025Z,76.42
2022-11-16T12:05:16.017Z,76.20
2022-11-16T12:07:50.216Z,76.24
2022-11-16T12:10:49.711Z,76.18
2022-11-16T12:13:45.698Z,75.98
2022-11-16T12:16:33.002Z,76.07
2022-11-16T12:19:08.975Z,76.02
2022-11-16T12:22:17.833Z,75.91
2022-11-16T12:24:53.432Z,75.91
2022-11-16T12:27:29.199Z,75.84
2022-11-16T12:30:08.023Z,75.76
2022-11-16T12:33:02.596Z,75.90
2022-11-16T12:35:43.433Z,75.63
2022-11-16T12:38:25.944Z,75.75
2022-11-16T12:40:59.095Z,75.86
2022-11-16T12:43:47.666Z,75.71
2022-11-16T12:46:31.533Z,75.68
2022-11-16T12:49:13.406Z,75.55
2022-11-16T12:51:48.791Z,75.71
2022-11-16T12:55:19.041Z,75.59
2022-11-16T12:58:05.788Z,75.68
2022-11-16T13:00:48.554Z,75.56
2022-11-16T13:03:24.212Z,75.73
2022-11-16T13:06:08.659Z,76.01
2022-11-16T13:08:38.987Z,75.63
2022-11-16T13:11:18.051Z,75.80
2022-11-16T13:13:52.774Z,75.67
2022-11-16T13:16:21.264Z,75.79
2022-11-16T13:18:48.524Z,75.79
2022-11-16T13:21:21.228Z,75.70
2022-11-16T13:24:16.739Z,75.44
2022-11-16T13:27:06.363Z,75.60
2022-11-16T13:29:41.069Z,75.62
2022-11-16T13:32:11.242Z,75.74
2022-11-16T13:34:40.049Z,75.68
2022-11-16T13:37:38.847Z,75.68
2022-11-16T13:40:05.806Z,75.69
2022-11-16T13:42:35.716Z,75.87
2022-11-16T13:45:17.031Z,75.78
2022-11-16T13:47:55.871Z,75.73
2022-11-16T13:50:36.045Z,75.89
2022-11-16T13:56:03.475Z,75.99
2022-11-16T13:58:32.087Z,75.88
2022-11-16T14:01:14.440Z,75.84
2022-11-16T14:03:46.343Z,75.97
2022-11-16T14:06:19.649Z,75.89
2022-11-16T14:08:49.259Z,75.89
2022-11-16T14:11:37.099Z,76.08
2022-11-16T14:14:13.037Z,76.07
2022-11-16T14:16:47.097Z,76.10
2022-11-16T14:19:41.740Z,76.27
2022-11-16T14:22:19.426Z,76.15
2022-11-16T14:25:29.207Z,76.11
2022-11-16T14:28:01.038Z,76.05
2022-11-16T14:30:48.605Z,76.02
2022-11-16T14:33:28.629Z,75.98
2022-11-16T14:35:55.572Z,76.04
2022-11-16T14:38:42.405Z,76.26
2022-11-16T14:41:29.279Z,76.42
2022-11-16T14:43:58.425Z,76.60
2022-11-16T14:46:30.576Z,76.74
2022-11-16T14:48:59.305Z,76.80
2022-11-16T14:51:31.771Z,77.01
2022-11-16T14:54:05.583Z,76.91
2022-11-16T14:56:32.153Z,76.90
2022-11-16T14:59:01.188Z,76.85
2022-11-16T15:01:31.329Z,76.92
2022-11-16T15:04:03.807Z,76.85
2022-11-16T15:06:39.062Z,76.88
2022-11-16T15:09:06.203Z,77.05
2022-11-16T15:12:02.676Z,76.99
2022-11-16T15:14:34.202Z,77.05
2022-11-16T15:17:00.952Z,77.19
2022-11-16T15:19:32.375Z,77.06
2022-11-16T15:22:00.990Z,77.08
2022-11-16T15:24:32.066Z,77.13
2022-11-16T15:27:36.887Z,77.26
2022-11-16T15:30:15.175Z,77.20
2022-11-16T15:32:44.461Z,77.43
2022-11-16T15:35:32.119Z,77.30
2022-11-16T15:38:20.946Z,77.30
2022-11-16T15:40:56.570Z,77.32
2022-11-16T15:43:34.522Z,77.23
2022-11-16T15:46:03.859Z,77.35
2022-11-16T15:48:31.059Z,77.51
2022-11-16T15:51:05.291Z,77.38
2022-11-16T15:53:54.936Z,77.32
2022-11-16T15:56:27.572Z,77.20
2022-11-16T15:58:57.238Z,77.27
2022-11-16T16:01:25.640Z,77.13
2022-11-16T16:03:59.165Z,77.28
2022-11-16T16:06:45.363Z,77.36
2022-11-16T16:09:15.090Z,77.23
2022-11-16T16:11:42.037Z,77.30
2022-11-16T16:14:10.867Z,77.34
2022-11-16T16:16:38.459Z,77.48
2022-11-16T16:19:24.507Z,77.39
2022-11-16T16:21:51.906Z,77.58
2022-11-16T16:24:36.871Z,77.62
2022-11-16T16:27:12.174Z,77.96
2022-11-16T16:29:38.971Z,77.80
2022-11-16T16:32:05.873Z,77.89
2022-11-16T16:34:35.400Z,78.19
2022-11-16T16:37:04.317Z,78.07
2022-11-16T16:39:33.785Z,78.01
2022-11-16T16:42:00.663Z,77.83
2022-11-16T16:44:27.272Z,77.98
2022-11-16T16:46:54.207Z,78.00
2022-11-16T16:49:20.820Z,78.11
2022-11-16T16:51:47.442Z,78.02
2022-11-16T16:54:15.003Z,78.19
2022-11-16T16:56:41.607Z,78.27
2022-11-16T16:59:08.444Z,78.34
2022-11-16T17:01:35.410Z,78.32
2022-11-16T17:04:02.093Z,78.63
2022-11-16T17:06:30.643Z,78.68
2022-11-16T17:08:58.013Z,78.86
2022-11-16T17:11:25.150Z,78.89
2022-11-16T17:13:51.794Z,78.81
2022-11-16T17:16:18.650Z,78.82
2022-11-16T17:18:45.264Z,78.96
2022-11-16T17:21:11.861Z,78.81
2022-11-16T17:23:38.774Z,78.86
2022-11-16T17:26:07.872Z,78.62
2022-11-16T17:28:34.929Z,78.84
2022-11-16T17:31:03.317Z,78.65
2022-11-16T17:33:37.046Z,78.82
2022-11-16T17:36:05.106Z,78.54
2022-11-16T17:38:35.874Z,78.76
2022-11-16T17:41:14.707Z,78.72
2022-11-16T17:43:43.032Z,78.70
2022-11-16T17:46:18.347Z,78.70
2022-11-16T17:48:47.214Z,78.71
2022-11-16T17:51:20.224Z,78.98
2022-11-16T17:53:46.950Z,78.87
2022-11-16T17:56:15.830Z,78.92
2022-11-16T17:58:42.941Z,78.97
2022-11-16T18:01:09.564Z,78.78
2022-11-16T18:03:37.211Z,78.93
2022-11-16T18:06:09.501Z,78.84
2022-11-16T18:08:37.157Z,78.78
2022-11-16T18:11:24.514Z,78.79
2022-11-16T18:14:00.539Z,78.87
2022-11-16T18:16:30.340Z,78.88
2022-11-16T18:19:01.893Z,79.04
2022-11-16T18:21:29.412Z,79.13
2022-11-16T18:23:56.221Z,78.88
2022-11-16T18:26:24.757Z,78.89
2022-11-16T18:28:53.690Z,78.88
2022-11-16T18:31:22.859Z,78.85
2022-11-16T18:33:50.300Z,78.75
2022-11-16T18:36:18.681Z,78.86
2022-11-16T18:38:46.442Z,78.84
2022-11-16T18:41:13.427Z,78.86
2022-11-16T18:43:49.549Z,78.76
2022-11-16T18:46:17.211Z,78.58
2022-11-16T18:48:43.989Z,78.63
2022-11-16T18:51:11.357Z,78.73
2022-11-16T18:53:38.429Z,78.64
2022-11-16T18:56:05.884Z,78.75
2022-11-16T19:01:21.920Z,78.68
2022-11-16T19:03:48.862Z,78.80
2022-11-16T19:06:17.210Z,78.59
2022-11-16T19:08:46.837Z,78.94
2022-11-16T19:11:17.275Z,79.00
2022-11-16T19:13:44.732Z,79.25
2022-11-16T19:16:13.779Z,79.14
2022-11-16T19:18:40.851Z,79.24
2022-11-16T19:21:07.692Z,79.37
2022-11-16T19:23:43.134Z,79.22
2022-11-16T19:26:12.286Z,79.27
2022-11-16T19:28:40.936Z,79.27
2022-11-16T19:31:16.331Z,79.26
2022-11-16T19:33:44.493Z,79.16
2022-11-16T19:36:13.871Z,79.15
2022-11-16T19:38:41.052Z,79.21
2022-11-16T19:41:08.247Z,79.16
2022-11-16T19:43:35.342Z,79.18
2022-11-16T19:46:04.612Z,79.31
2022-11-16T19:48:32.762Z,79.14
2022-11-16T19:51:10.332Z,79.11
2022-11-16T19:53:38.111Z,79.24
2022-11-16T19:56:05.896Z,79.24
2022-11-16T19:58:37.353Z,79.18
2022-11-16T20:01:10.548Z,78.82
2022-11-16T20:03:38.483Z,79.05
2022-11-16T20:06:25.588Z,79.01
2022-11-16T20:08:58.547Z,78.88
2022-11-16T20:11:31.328Z,78.72
2022-11-16T20:13:58.533Z,78.69
2022-11-16T20:16:37.004Z,78.68
2022-11-16T20:19:07.696Z,78.62
2022-11-16T20:21:44.496Z,78.41
2022-11-16T20:24:13.634Z,78.37
2022-11-16T20:26:46.120Z,78.26
2022-11-16T20:29:14.415Z,78.27
2022-11-16T20:31:42.902Z,78.43
2022-11-16T20:34:14.231Z,78.22
2022-11-16T20:36:46.475Z,78.24
2022-11-16T20:39:15.123Z,78.17
2022-11-16T20:41:43.967Z,78.09
2022-11-16T20:44:18.552Z,78.06
2022-11-16T20:46:45.798Z,78.02
2022-11-16T20:49:12.954Z,78.19
2022-11-16T20:51:39.931Z,78.03
2022-11-16T20:54:07.105Z,78.11
2022-11-16T20:56:34.335Z,78.19
2022-11-16T20:59:01.830Z,78.30
2022-11-16T21:01:31.453Z,78.31
2022-11-16T21:04:00.437Z,78.15
2022-11-16T21:06:27.981Z,78.30
2022-11-16T21:08:55.344Z,78.24
2022-11-16T21:11:29.238Z,78.30
2022-11-16T21:14:14.928Z,78.32
2022-11-16T21:16:41.765Z,78.34
2022-11-16T21:19:08.439Z,78.28
2022-11-16T21:21:35.236Z,78.36
2022-11-16T21:24:02.696Z,78.22
2022-11-16T21:26:31.662Z,78.33
2022-11-16T21:29:00.099Z,78.13
2022-11-16T21:31:32.032Z,78.25
2022-11-16T21:34:00.800Z,78.25
2022-11-16T21:36:29.470Z,78.17
2022-11-16T21:38:56.389Z,78.03
2022-11-16T21:41:24.216Z,78.27
2022-11-16T21:43:51.139Z,78.07
2022-11-16T21:46:20.482Z,78.18
2022-11-16T21:48:48.155Z,78.23
2022-11-16T21:51:17.301Z,78.26
2022-11-16T21:53:44.641Z,78.17
2022-11-16T21:56:16.611Z,77.96
2022-11-16T21:58:44.020Z,78.17
2022-11-16T22:01:12.669Z,77.99
2022-11-16T22:03:39.629Z,77.95
2022-11-16T22:06:26.681Z,78.07
2022-11-16T22:08:53.531Z,77.92
2022-11-16T22:11:22.402Z,78.05
2022-11-16T22:13:50.430Z,77.95
2022-11-16T22:16:18.984Z,77.99
2022-11-16T22:18:45.671Z,77.91
2022-11-16T22:21:13.021Z,78.00
2022-11-16T22:23:40.053Z,77.93
2022-11-16T22:26:09.737Z,78.01
2022-11-16T22:28:36.771Z,77.89
2022-11-16T22:31:06.257Z,78.02
2022-11-16T22:33:35.042Z,77.77
2022-11-16T22:36:02.954Z,78.02
2022-11-16T22:38:30.185Z,77.93
2022-11-16T22:40:57.617Z,78.09
2022-11-16T22:43:26.976Z,77.88
2022-11-16T22:46:02.436Z,77.94
2022-11-16T22:48:36.977Z,77.88
2022-11-16T22:51:12.238Z,77.92
2022-11-16T22:53:39.273Z,77.85
2022-11-16T22:56:08.116Z,77.82
2022-11-16T22:58:36.060Z,77.78
2022-11-16T23:01:03.918Z,77.83
2022-11-16T23:03:30.964Z,77.79
2022-11-16T23:05:57.673Z,77.85
2022-11-16T23:08:27.142Z,77.87
2022-11-16T23:11:23.009Z,77.92
2022-11-16T23:14:09.470Z,77.97
2022-11-16T23:16:36.334Z,77.97
2022-11-16T23:19:03.421Z,77.99
2022-11-16T23:21:48.992Z,78.17
2022-11-16T23:24:34.220Z,78.01
2022-11-16T23:27:33.874Z,78.16
2022-11-16T23:30:06.571Z,78.09
2022-11-16T23:32:36.443Z,78.02
2022-11-16T23:35:03.476Z,78.07
2022-11-16T23:37:30.140Z,78.21
2022-11-16T23:39:57.068Z,78.20
2022-11-16T23:42:53.111Z,77.92
2022-11-16T23:45:20.684Z,77.97
2022-11-16T23:47:47.393Z,78.10
2022-11-16T23:50:13.999Z,78.02
2022-11-16T23:52:40.748Z,77.99
2022-11-16T23:55:07.824Z,78.13
2022-11-16T23:57:34.404Z,78.01
